createdAt,value
2023-01-19T00:01:42.310Z,32.42
2023-01-19T00:04:30.446Z,32.40
2023-01-19T00:07:18.141Z,30.75
2023-01-19T00:10:06.769Z,29.30
2023-01-19T00:12:54.375Z,32.75
2023-01-19T00:15:43.582Z,40.03
2023-01-19T00:18:31.178Z,38.90
2023-01-19T00:21:19.092Z,35.40
2023-01-19T00:24:07.720Z,35.38
2023-01-19T00:26:55.405Z,31.95
2023-01-19T00:29:43.077Z,29.65
2023-01-19T00:32:31.956Z,29.42
2023-01-19T00:35:19.964Z,28.70
2023-01-19T00:38:07.498Z,31.42
2023-01-19T00:40:54.894Z,29.02
2023-01-19T00:43:42.209Z,28.50
2023-01-19T00:46:29.638Z,27.98
2023-01-19T00:49:18.683Z,28.77
2023-01-19T00:52:06.676Z,35.13
2023-01-19T00:54:54.153Z,29.63
2023-01-19T00:57:42.359Z,33.78
2023-01-19T01:00:30.008Z,29.20
2023-01-19T01:03:17.756Z,28.85
2023-01-19T01:06:08.411Z,28.80
2023-01-19T01:08:55.924Z,27.00
2023-01-19T01:11:44.463Z,29.75
2023-01-19T01:14:32.227Z,33.20
2023-01-19T01:17:24.935Z,34.50
2023-01-19T01:20:16.493Z,31.88
2023-01-19T01:23:05.506Z,28.40
2023-01-19T01:25:53.302Z,24.40
2023-01-19T01:28:41.051Z,15.50
2023-01-19T01:31:29.020Z,13.48
2023-01-19T01:34:16.660Z,11.60
2023-01-19T01:37:04.318Z,11.73
2023-01-19T01:39:53.381Z,11.82
2023-01-19T01:42:42.493Z,12.52
2023-01-19T01:45:34.535Z,14.10
2023-01-19T01:48:25.729Z,11.95
2023-01-19T01:51:27.260Z,11.50
2023-01-19T01:54:19.073Z,10.82
2023-01-19T01:57:12.444Z,10.80
2023-01-19T02:00:00.487Z,10.35
2023-01-19T02:02:55.015Z,8.90
2023-01-19T02:05:43.891Z,9.60
2023-01-19T02:08:53.809Z,9.85
2023-01-19T02:11:59.409Z,9.10
2023-01-19T02:14:48.441Z,9.57
2023-01-19T02:17:35.941Z,9.02
2023-01-19T02:20:27.755Z,9.60
2023-01-19T02:23:21.281Z,9.25
2023-01-19T02:26:13.139Z,9.45
2023-01-19T02:29:03.238Z,9.52
2023-01-19T02:31:50.806Z,8.82
2023-01-19T02:34:38.620Z,8.48
2023-01-19T02:37:27.751Z,9.15
2023-01-19T02:40:19.804Z,9.35
2023-01-19T02:43:09.770Z,8.40
2023-01-19T02:45:57.612Z,8.13
2023-01-19T02:48:45.007Z,7.20
2023-01-19T02:51:32.553Z,8.10
2023-01-19T02:54:35.195Z,7.78
2023-01-19T02:57:43.705Z,8.05
2023-01-19T03:00:45.872Z,8.00
2023-01-19T03:03:40.584Z,7.45
2023-01-19T03:06:40.397Z,7.30
2023-01-19T03:09:33.761Z,7.03
2023-01-19T03:12:30.061Z,6.05
2023-01-19T03:15:22.373Z,7.25
2023-01-19T03:18:14.799Z,6.72
2023-01-19T03:21:06.888Z,7.28
2023-01-19T03:23:56.679Z,6.07
2023-01-19T03:26:46.944Z,7.05
2023-01-19T03:29:36.149Z,7.18
2023-01-19T03:32:30.295Z,7.50
2023-01-19T03:35:21.898Z,8.13
2023-01-19T03:38:16.063Z,6.57
2023-01-19T03:41:06.586Z,6.80
2023-01-19T03:43:56.452Z,8.23
2023-01-19T03:46:44.986Z,7.63
2023-01-19T03:49:32.954Z,8.20
2023-01-19T03:52:28.791Z,8.07
2023-01-19T03:55:16.575Z,8.10
2023-01-19T03:58:04.206Z,8.10
2023-01-19T04:00:51.863Z,8.45
2023-01-19T04:03:39.672Z,9.20
2023-01-19T04:06:28.222Z,9.52
2023-01-19T04:09:19.244Z,9.40
2023-01-19T04:12:07.166Z,9.82
2023-01-19T04:14:55.339Z,10.57
2023-01-19T04:17:43.262Z,9.82
2023-01-19T04:20:30.848Z,10.30
2023-01-19T04:23:18.420Z,11.32
2023-01-19T04:26:09.600Z,11.30
2023-01-19T04:28:57.017Z,12.05
2023-01-19T04:31:44.795Z,12.73
2023-01-19T04:34:32.435Z,12.07
2023-01-19T04:37:19.984Z,12.82
2023-01-19T04:40:09.053Z,13.50
2023-01-19T04:42:57.939Z,15.00
2023-01-19T04:45:46.546Z,14.63
2023-01-19T04:48:33.793Z,13.95
2023-01-19T04:51:21.933Z,15.98
2023-01-19T04:54:10.143Z,13.45
2023-01-19T04:56:57.879Z,15.98
2023-01-19T04:59:46.781Z,15.20
2023-01-19T05:02:34.677Z,14.48
2023-01-19T05:05:22.015Z,16.30
2023-01-19T05:08:09.607Z,17.35
2023-01-19T05:10:57.613Z,16.98
2023-01-19T05:13:45.335Z,15.05
2023-01-19T05:16:34.845Z,16.13
2023-01-19T05:19:22.339Z,14.40
2023-01-19T05:22:10.141Z,15.85
2023-01-19T05:24:57.671Z,16.05
2023-01-19T05:27:45.742Z,15.55
2023-01-19T05:30:33.147Z,14.70
2023-01-19T05:33:22.376Z,14.52
2023-01-19T05:36:10.924Z,14.98
2023-01-19T05:38:58.614Z,13.60
2023-01-19T05:41:46.556Z,15.07
2023-01-19T05:44:34.146Z,12.57
2023-01-19T05:47:21.444Z,14.60
2023-01-19T05:50:11.303Z,14.27
2023-01-19T05:53:00.241Z,14.13
2023-01-19T05:55:48.762Z,12.85
2023-01-19T05:58:36.356Z,13.90
2023-01-19T06:01:23.810Z,12.93
2023-01-19T06:04:11.615Z,13.52
2023-01-19T06:07:00.389Z,12.57
2023-01-19T06:09:48.139Z,12.60
2023-01-19T06:12:35.711Z,15.05
2023-01-19T06:15:23.351Z,14.75
2023-01-19T06:18:11.124Z,15.52
2023-01-19T06:20:59.686Z,14.40
2023-01-19T06:23:48.389Z,11.90
2023-01-19T06:26:36.207Z,13.48
2023-01-19T06:29:23.786Z,13.50
2023-01-19T06:32:11.298Z,13.05
2023-01-19T06:34:58.681Z,11.20
2023-01-19T06:37:46.243Z,10.40
2023-01-19T06:40:35.344Z,11.55
2023-01-19T06:43:23.446Z,10.52
2023-01-19T06:46:10.714Z,11.55
2023-01-19T06:48:58.384Z,10.82
2023-01-19T06:51:45.866Z,10.52
2023-01-19T06:54:33.351Z,9.50
2023-01-19T06:57:22.706Z,8.73
2023-01-19T07:00:14.912Z,8.95
2023-01-19T07:03:02.847Z,9.45
2023-01-19T07:05:53.841Z,9.13
2023-01-19T07:08:41.248Z,8.52
2023-01-19T07:11:33.126Z,9.48
2023-01-19T07:14:22.205Z,8.35
2023-01-19T07:17:09.831Z,9.38
2023-01-19T07:19:57.548Z,9.48
2023-01-19T07:22:46.617Z,8.73
2023-01-19T07:25:34.768Z,8.00
2023-01-19T07:28:22.476Z,8.48
2023-01-19T07:31:11.890Z,7.97
2023-01-19T07:34:00.512Z,7.60
2023-01-19T07:36:47.936Z,8.57
2023-01-19T07:39:36.747Z,9.32
2023-01-19T07:42:24.204Z,8.55
2023-01-19T07:45:12.817Z,8.90
2023-01-19T07:48:01.789Z,8.63
2023-01-19T07:50:49.347Z,8.73
2023-01-19T07:53:37.001Z,7.63
2023-01-19T07:56:24.833Z,8.48
2023-01-19T07:59:13.600Z,7.63
2023-01-19T08:02:01.007Z,7.47
2023-01-19T08:04:50.698Z,8.57
2023-01-19T08:07:38.289Z,8.00
2023-01-19T08:10:27.007Z,7.68
2023-01-19T08:13:15.242Z,8.52
2023-01-19T08:16:03.054Z,7.80
2023-01-19T08:18:50.897Z,8.52
2023-01-19T08:21:39.977Z,8.23
2023-01-19T08:24:29.172Z,8.77
2023-01-19T08:27:16.740Z,8.05
2023-01-19T08:30:04.478Z,8.05
2023-01-19T08:32:52.645Z,8.05
2023-01-19T08:35:42.040Z,8.23
2023-01-19T08:38:30.922Z,7.95
2023-01-19T08:41:18.439Z,8.07
2023-01-19T08:44:06.113Z,8.95
2023-01-19T08:46:53.488Z,8.70
2023-01-19T08:49:41.339Z,8.68
2023-01-19T08:52:29.599Z,8.73
2023-01-19T08:55:18.543Z,9.23
2023-01-19T08:58:07.927Z,9.63
2023-01-19T09:00:55.496Z,10.05
2023-01-19T09:03:42.778Z,8.40
2023-01-19T09:06:30.462Z,8.85
2023-01-19T09:09:17.823Z,5.43
2023-01-19T09:12:06.894Z,5.50
2023-01-19T09:14:54.266Z,6.50
2023-01-19T09:17:42.349Z,6.88
2023-01-19T09:20:31.150Z,7.38
2023-01-19T09:23:20.668Z,7.60
2023-01-19T09:26:08.924Z,8.25
2023-01-19T09:28:58.016Z,8.35
2023-01-19T09:31:46.443Z,8.68
2023-01-19T09:34:34.020Z,8.23
2023-01-19T09:37:22.027Z,8.45
2023-01-19T09:40:13.581Z,7.93
2023-01-19T09:43:14.586Z,7.97
2023-01-19T09:46:06.629Z,9.60
2023-01-19T09:48:56.641Z,9.18
2023-01-19T09:51:48.256Z,7.47
2023-01-19T09:54:43.089Z,7.40
2023-01-19T09:57:37.622Z,6.72
2023-01-19T10:00:27.720Z,6.95
2023-01-19T10:03:18.357Z,7.88
2023-01-19T10:06:10.551Z,6.97
2023-01-19T10:09:05.540Z,6.38
2023-01-19T10:11:58.705Z,6.38
2023-01-19T10:14:52.297Z,6.70
2023-01-19T10:17:50.491Z,6.72
2023-01-19T10:20:44.259Z,6.90
2023-01-19T10:23:42.946Z,7.03
2023-01-19T10:26:38.930Z,6.47
2023-01-19T10:29:29.884Z,6.45
2023-01-19T10:32:21.312Z,5.95
2023-01-19T10:35:21.807Z,5.75
2023-01-19T10:38:15.175Z,5.32
2023-01-19T10:41:07.367Z,6.28
2023-01-19T10:44:01.502Z,6.00
2023-01-19T10:46:51.178Z,6.60
2023-01-19T10:49:40.493Z,4.72
2023-01-19T10:52:33.601Z,6.32
2023-01-19T10:55:31.609Z,5.90
2023-01-19T10:58:30.744Z,5.35
2023-01-19T11:01:21.788Z,6.13
2023-01-19T11:04:27.886Z,5.25
2023-01-19T11:07:19.845Z,5.85
2023-01-19T11:10:22.569Z,5.88
2023-01-19T11:13:15.988Z,6.18
2023-01-19T11:16:07.266Z,5.82
2023-01-19T11:18:57.077Z,5.32
2023-01-19T11:21:44.514Z,6.53
2023-01-19T11:24:32.361Z,5.90
2023-01-19T11:27:21.636Z,6.55
2023-01-19T11:30:21.424Z,5.18
2023-01-19T11:33:26.025Z,5.80
2023-01-19T11:36:21.111Z,5.65
2023-01-19T11:39:23.732Z,5.90
2023-01-19T11:42:13.897Z,5.85
2023-01-19T11:45:07.202Z,5.53
2023-01-19T11:47:57.197Z,6.63
2023-01-19T11:50:46.324Z,5.93
2023-01-19T11:53:35.260Z,6.63
2023-01-19T11:56:28.260Z,5.80
2023-01-19T11:59:16.229Z,5.35
2023-01-19T12:02:15.670Z,6.70
2023-01-19T12:05:10.485Z,7.43
2023-01-19T12:08:01.109Z,6.57
2023-01-19T12:10:50.285Z,7.30
2023-01-19T12:13:38.364Z,7.82
2023-01-19T12:16:30.017Z,6.50
2023-01-19T12:19:20.674Z,7.13
2023-01-19T12:22:15.146Z,7.95
2023-01-19T12:25:07.015Z,7.30
2023-01-19T12:27:55.497Z,6.25
2023-01-19T12:30:43.375Z,5.75
2023-01-19T12:33:36.024Z,6.53
2023-01-19T12:36:38.606Z,5.97
2023-01-19T12:39:27.806Z,6.20
2023-01-19T12:42:18.897Z,5.93
2023-01-19T12:45:13.555Z,5.00
2023-01-19T12:48:02.260Z,6.05
2023-01-19T12:50:49.702Z,6.05
2023-01-19T12:53:37.696Z,5.60
2023-01-19T12:56:32.564Z,6.35
2023-01-19T12:59:26.679Z,6.32
2023-01-19T13:02:44.199Z,5.63
2023-01-19T13:09:29.036Z,7.15
2023-01-19T13:12:27.612Z,6.43
2023-01-19T13:15:36.380Z,7.20
2023-01-19T13:18:26.744Z,7.25
2023-01-19T13:21:15.134Z,6.57
2023-01-19T13:24:04.917Z,6.60
2023-01-19T13:27:03.300Z,5.57
2023-01-19T13:29:52.661Z,6.10
2023-01-19T13:32:43.173Z,5.78
2023-01-19T13:35:30.982Z,6.55
2023-01-19T13:38:18.929Z,6.00
2023-01-19T13:41:06.831Z,6.53
2023-01-19T13:44:01.202Z,6.57
2023-01-19T13:46:51.476Z,5.97
2023-01-19T13:49:42.185Z,6.78
2023-01-19T13:52:30.728Z,6.78
2023-01-19T13:55:20.575Z,6.07
2023-01-19T13:58:22.247Z,6.53
2023-01-19T14:01:22.694Z,6.10
2023-01-19T14:04:32.779Z,6.65
2023-01-19T14:07:26.591Z,6.85
2023-01-19T14:10:16.793Z,5.90
2023-01-19T14:13:07.161Z,5.43
2023-01-19T14:15:58.278Z,5.82
2023-01-19T14:18:45.715Z,5.20
2023-01-19T14:21:44.479Z,6.00
2023-01-19T14:24:33.342Z,5.18
2023-01-19T14:27:24.359Z,5.00
2023-01-19T14:30:22.374Z,5.60
2023-01-19T14:33:33.954Z,5.90
2023-01-19T14:36:29.915Z,5.75
2023-01-19T14:39:25.674Z,5.43
2023-01-19T14:42:17.928Z,6.10
2023-01-19T14:45:09.831Z,5.97
2023-01-19T14:48:00.675Z,6.30
2023-01-19T14:51:02.478Z,6.82
2023-01-19T14:53:53.909Z,6.20
2023-01-19T14:56:42.626Z,5.30
2023-01-19T14:59:30.521Z,4.40
2023-01-19T15:02:19.581Z,4.53
2023-01-19T15:05:08.842Z,5.40
2023-01-19T15:07:56.780Z,8.52
2023-01-19T15:10:45.134Z,8.48
2023-01-19T15:13:33.986Z,10.20
2023-01-19T15:16:22.051Z,11.57
2023-01-19T15:19:13.057Z,13.93
2023-01-19T15:22:00.382Z,14.57
2023-01-19T15:24:47.801Z,16.52
2023-01-19T15:27:35.575Z,13.13
2023-01-19T15:30:27.879Z,13.55
2023-01-19T15:33:20.862Z,11.93
2023-01-19T15:36:11.382Z,11.98
2023-01-19T15:38:58.905Z,10.90
2023-01-19T15:41:46.541Z,10.00
2023-01-19T15:44:33.881Z,9.27
2023-01-19T15:47:22.741Z,10.20
2023-01-19T15:50:11.626Z,8.00
2023-01-19T15:52:59.405Z,8.65
2023-01-19T15:55:50.971Z,8.15
2023-01-19T15:58:38.423Z,9.77
2023-01-19T16:01:31.507Z,10.35
2023-01-19T16:04:20.568Z,9.85
2023-01-19T16:07:08.423Z,10.70
2023-01-19T16:09:55.976Z,12.88
2023-01-19T16:12:43.863Z,34.45
2023-01-19T16:15:31.656Z,51.22
2023-01-19T16:18:19.322Z,51.75
2023-01-19T16:21:08.401Z,38.47
2023-01-19T16:23:55.884Z,37.38
2023-01-19T16:26:43.592Z,33.58
2023-01-19T16:29:31.733Z,28.70
2023-01-19T16:32:19.788Z,23.42
2023-01-19T16:35:08.056Z,20.15
2023-01-19T16:37:57.190Z,18.10
2023-01-19T16:40:45.704Z,14.57
2023-01-19T16:43:33.303Z,12.85
2023-01-19T16:46:23.843Z,12.88
2023-01-19T16:49:13.978Z,12.52
2023-01-19T16:52:01.744Z,12.25
2023-01-19T16:54:54.872Z,13.65
2023-01-19T16:57:42.860Z,12.65
2023-01-19T17:00:30.454Z,10.85
2023-01-19T17:03:18.239Z,19.33
2023-01-19T17:06:06.608Z,18.48
2023-01-19T17:08:54.016Z,15.50
2023-01-19T17:11:43.584Z,14.35
2023-01-19T17:14:30.984Z,15.90
2023-01-19T17:17:18.596Z,14.25
2023-01-19T17:20:06.853Z,14.95
2023-01-19T17:22:54.959Z,13.65
2023-01-19T17:25:42.535Z,13.82
2023-01-19T17:28:31.968Z,15.93
2023-01-19T17:31:21.403Z,16.45
2023-01-19T17:34:09.866Z,18.15
2023-01-19T17:37:02.914Z,17.52
2023-01-19T17:39:50.475Z,17.80
2023-01-19T17:42:40.890Z,17.17
2023-01-19T17:45:29.924Z,16.20
2023-01-19T17:48:18.291Z,16.48
2023-01-19T17:51:07.141Z,16.52
2023-01-19T17:53:55.438Z,17.38
2023-01-19T17:56:42.842Z,25.10
2023-01-19T17:59:30.542Z,26.88
2023-01-19T18:02:24.361Z,31.08
2023-01-19T18:05:14.248Z,29.45
2023-01-19T18:08:01.981Z,24.70
2023-01-19T18:10:55.582Z,26.65
2023-01-19T18:13:45.219Z,31.67
2023-01-19T18:16:33.073Z,29.77
2023-01-19T18:19:23.055Z,29.95
2023-01-19T18:22:10.683Z,31.05
2023-01-19T18:24:58.276Z,32.60
2023-01-19T18:27:45.594Z,31.77
2023-01-19T18:30:33.389Z,31.40
2023-01-19T18:33:21.325Z,30.02
2023-01-19T18:36:11.445Z,36.50
2023-01-19T18:38:59.329Z,30.77
2023-01-19T18:41:46.961Z,39.03
2023-01-19T18:44:34.350Z,36.67
2023-01-19T18:47:22.061Z,36.00
2023-01-19T18:50:10.560Z,32.40
2023-01-19T18:52:59.558Z,30.88
2023-01-19T18:55:54.200Z,32.10
2023-01-19T18:58:41.516Z,32.20
2023-01-19T19:01:32.976Z,33.75
2023-01-19T19:04:20.766Z,32.30
2023-01-19T19:07:08.566Z,33.08
2023-01-19T19:09:57.391Z,35.92
2023-01-19T19:12:45.137Z,34.90
2023-01-19T19:15:33.447Z,34.45
2023-01-19T19:18:21.119Z,34.42
2023-01-19T19:21:10.036Z,36.13
2023-01-19T19:23:58.771Z,34.22
2023-01-19T19:26:47.576Z,34.38
2023-01-19T19:29:35.226Z,33.65
2023-01-19T19:32:22.783Z,32.63
2023-01-19T19:35:12.527Z,31.83
2023-01-19T19:38:00.258Z,30.85
2023-01-19T19:40:47.794Z,31.45
2023-01-19T19:43:37.413Z,31.70
2023-01-19T19:46:25.349Z,33.25
2023-01-19T19:49:12.992Z,35.45
2023-01-19T19:52:00.498Z,33.90
2023-01-19T19:54:49.494Z,34.95
2023-01-19T19:57:37.048Z,41.88
2023-01-19T20:00:26.877Z,44.08
2023-01-19T20:03:14.508Z,51.20
2023-01-19T20:06:04.776Z,56.20
2023-01-19T20:08:54.640Z,60.58
2023-01-19T20:11:43.331Z,57.85
2023-01-19T20:14:31.022Z,58.92
2023-01-19T20:17:20.851Z,52.60
2023-01-19T20:20:10.030Z,52.80
2023-01-19T20:22:58.697Z,56.92
2023-01-19T20:25:46.495Z,57.00
2023-01-19T20:28:34.316Z,51.75
2023-01-19T20:31:25.220Z,48.78
2023-01-19T20:34:16.541Z,49.83
2023-01-19T20:37:06.139Z,47.78
2023-01-19T20:39:53.866Z,49.92
2023-01-19T20:42:43.309Z,54.83
2023-01-19T20:45:30.767Z,59.65
2023-01-19T20:48:18.204Z,59.63
2023-01-19T20:51:08.611Z,70.40
2023-01-19T20:53:55.897Z,70.00
2023-01-19T20:56:43.437Z,60.15
2023-01-19T20:59:30.836Z,57.53
2023-01-19T21:02:18.675Z,56.88
2023-01-19T21:05:07.093Z,54.25
2023-01-19T21:07:55.924Z,54.60
2023-01-19T21:10:44.785Z,56.28
2023-01-19T21:13:32.487Z,61.58
2023-01-19T21:16:19.958Z,59.72
2023-01-19T21:19:07.563Z,56.10
2023-01-19T21:21:55.303Z,50.78
2023-01-19T21:25:06.288Z,52.90
2023-01-19T21:27:54.093Z,53.95
2023-01-19T21:30:41.676Z,53.65
2023-01-19T21:33:29.161Z,50.33
2023-01-19T21:36:16.704Z,54.63
2023-01-19T21:39:05.845Z,55.50
2023-01-19T21:41:54.682Z,57.28
2023-01-19T21:44:42.584Z,57.17
2023-01-19T21:47:29.892Z,53.88
2023-01-19T21:50:19.534Z,53.75
2023-01-19T21:53:11.189Z,55.10
2023-01-19T21:55:58.656Z,59.45
2023-01-19T21:58:48.325Z,54.38
2023-01-19T22:01:36.566Z,54.35
2023-01-19T22:04:24.289Z,54.10
2023-01-19T22:07:11.942Z,53.40
2023-01-19T22:09:59.356Z,52.92
2023-01-19T22:12:46.870Z,54.45
2023-01-19T22:15:35.765Z,52.40
2023-01-19T22:18:23.506Z,53.05
2023-01-19T22:21:12.530Z,54.53
2023-01-19T22:24:01.237Z,53.05
2023-01-19T22:26:48.663Z,55.30
2023-01-19T22:29:36.323Z,57.45
2023-01-19T22:32:25.223Z,54.83
2023-01-19T22:35:13.048Z,55.47
2023-01-19T22:38:00.813Z,52.45
2023-01-19T22:40:48.293Z,58.25
2023-01-19T22:43:35.599Z,59.17
2023-01-19T22:46:24.992Z,52.35
2023-01-19T22:49:15.356Z,55.38
2023-01-19T22:52:02.765Z,65.90
2023-01-19T22:54:50.178Z,67.32
2023-01-19T22:57:38.373Z,65.03
2023-01-19T23:00:26.136Z,70.20
2023-01-19T23:03:13.450Z,75.20
2023-01-19T23:06:06.482Z,74.43
2023-01-19T23:08:55.729Z,77.05
2023-01-19T23:11:45.706Z,72.05
2023-01-19T23:14:33.468Z,80.20
2023-01-19T23:17:21.138Z,82.53
2023-01-19T23:20:10.511Z,80.90
2023-01-19T23:22:59.813Z,81.07
2023-01-19T23:25:47.924Z,92.68
2023-01-19T23:28:36.785Z,92.13
2023-01-19T23:31:25.954Z,97.03
2023-01-19T23:34:15.063Z,98.90
2023-01-19T23:37:02.569Z,97.82
2023-01-19T23:39:51.571Z,102.32
2023-01-19T23:42:39.490Z,98.97
2023-01-19T23:45:27.102Z,101.15
2023-01-19T23:48:14.501Z,97.55
2023-01-19T23:51:07.910Z,94.65
2023-01-19T23:53:55.751Z,93.45
2023-01-19T23:56:44.723Z,96.63
2023-01-19T23:59:32.379Z,88.82
